Time;durP1;ratioP1;P1;durP2;ratioP2;P2;SDS_P1;SDS_P2;PMS_P1;PMS_P2;Temp;Humidity;BMP_temperature;BMP_pressure;BME280_temperature;BME280_humidity;BME280_pressure;Samples;Min_cycle;Max_cycle;Signal;HPM_P1;HPM_P2
2022/04/13 00:02:02;;;;;;;18.13;6.47;;;;;;;15.99;54.17;101005.44;5072029;28;20024;-68
2022/04/13 00:04:27;;;;;;;11.52;5.72;;;;;;;15.88;54.43;100992.94;5076715;28;20040;-69
2022/04/13 00:06:55;;;;;;;12.40;6.28;;;;;;;15.81;54.57;100988.22;5077797;28;20044;-68
2022/04/13 00:09:21;;;;;;;11.90;5.70;;;;;;;15.80;55.10;100991.88;5071242;28;20484;-68
2022/04/13 00:11:47;;;;;;;9.40;5.97;;;;;;;15.84;54.25;101006.72;5074829;28;20033;-69
2022/04/13 00:14:13;;;;;;;11.38;5.22;;;;;;;15.69;55.47;100999.97;5077839;28;20028;-68
2022/04/13 00:16:42;;;;;;;9.68;6.38;;;;;;;15.58;55.90;100998.13;5078965;28;20025;-68
2022/04/13 00:19:07;;;;;;;7.13;5.38;;;;;;;15.52;55.69;101007.50;5070434;28;20086;-68
2022/04/13 00:21:35;;;;;;;8.32;5.75;;;;;;;15.50;56.02;101008.59;5070566;28;20052;-69
2022/04/13 00:24:03;;;;;;;13.98;5.43;;;;;;;15.48;55.92;101008.75;5078289;28;20521;-68
2022/04/13 00:26:29;;;;;;;10.35;5.55;;;;;;;15.42;56.19;101009.25;5080828;28;20059;-68
2022/04/13 00:28:57;;;;;;;12.43;6.35;;;;;;;15.44;56.19;101015.31;5077675;28;20431;-69
2022/04/13 00:31:22;;;;;;;12.57;5.45;;;;;;;15.42;56.11;101019.97;5070271;28;20028;-68
2022/04/13 00:33:48;;;;;;;12.05;5.10;;;;;;;15.35;56.01;101016.06;5083747;28;20024;-69
2022/04/13 00:36:14;;;;;;;10.63;5.18;;;;;;;15.30;55.88;101026.31;5075034;28;20051;-68
2022/04/13 00:38:42;;;;;;;13.38;5.13;;;;;;;15.19;56.44;101021.81;5074960;28;20020;-68
2022/04/13 00:41:08;;;;;;;11.45;4.68;;;;;;;15.33;55.64;101023.41;5070523;28;20032;-69
2022/04/13 00:43:33;;;;;;;15.75;5.45;;;;;;;15.36;55.49;101031.19;5070848;28;20035;-68
2022/04/13 00:45:58;;;;;;;9.07;4.97;;;;;;;15.27;55.89;101030.09;5070962;28;20035;-68
2022/04/13 00:48:31;;;;;;;13.15;5.00;;;;;;;15.36;55.60;101040.06;5074236;28;20032;-69
2022/04/13 00:50:56;;;;;;;9.85;5.43;;;;;;;15.17;55.51;101008.50;5085374;28;20429;-68
2022/04/13 00:53:24;;;;;;;11.50;5.82;;;;;;;15.32;55.97;101038.59;5084155;28;20090;-68
2022/04/13 00:55:53;;;;;;;13.10;5.82;;;;;;;15.34;55.64;101054.56;5077699;28;20376;-68
2022/04/13 00:58:22;;;;;;;16.58;5.82;;;;;;;15.34;55.37;101050.06;5071328;28;20095;-68
2022/04/13 01:00:48;;;;;;;10.57;5.50;;;;;;;15.32;55.87;101048.47;5073007;28;20386;-68
2022/04/13 01:03:19;;;;;;;12.40;5.45;;;;;;;15.25;56.20;101055.31;5085159;28;20032;-69
2022/04/13 01:05:48;;;;;;;13.85;5.35;;;;;;;15.16;56.41;101060.41;5083813;28;20650;-68
2022/04/13 01:08:15;;;;;;;11.40;5.32;;;;;;;15.15;56.70;101061.41;5069468;28;20636;-68
2022/04/13 01:10:42;;;;;;;11.57;5.47;;;;;;;15.06;56.97;101059.44;5072162;28;20032;-68
2022/04/13 01:13:07;;;;;;;11.98;5.10;;;;;;;15.11;57.11;101065.28;5075768;28;20096;-69
2022/04/13 01:15:34;;;;;;;17.65;5.57;;;;;;;15.10;57.08;101068.09;5095975;28;20116;-68
2022/04/13 01:17:59;;;;;;;11.98;5.63;;;;;;;15.09;57.00;101075.28;5071369;28;20071;-69
2022/04/13 01:20:25;;;;;;;9.98;5.72;;;;;;;15.07;57.31;101074.53;5071217;28;20076;-68
2022/04/13 01:22:51;;;;;;;9.52;5.18;;;;;;;15.04;57.89;101077.47;5069717;28;20032;-68
2022/04/13 01:25:22;;;;;;;11.07;5.90;;;;;;;14.89;58.40;101074.16;5070291;28;20544;-68
2022/04/13 01:27:48;;;;;;;13.48;6.18;;;;;;;14.89;58.41;101079.50;5076088;28;20028;-68
2022/04/13 01:30:16;;;;;;;11.02;5.95;;;;;;;14.87;58.77;101084.13;5071375;28;20028;-68
2022/04/13 01:32:41;;;;;;;14.13;6.78;;;;;;;14.80;59.44;101090.94;5074576;28;20028;-68
2022/04/13 01:35:08;;;;;;;15.00;6.35;;;;;;;14.88;59.35;101101.91;5079499;28;20501;-68
2022/04/13 01:37:34;;;;;;;14.35;6.50;;;;;;;14.81;60.04;101097.97;5074824;28;20479;-68
2022/04/13 01:40:00;;;;;;;15.20;7.43;;;;;;;14.83;60.25;101095.19;5077678;28;20035;-68
2022/04/13 01:42:25;;;;;;;17.55;7.00;;;;;;;14.74;60.76;101104.78;5072509;28;20490;-68
2022/04/13 01:44:50;;;;;;;15.02;7.25;;;;;;;14.65;61.17;101109.03;5073506;28;20024;-68
2022/04/13 01:47:19;;;;;;;11.65;6.57;;;;;;;14.70;61.08;101106.81;5074994;28;20102;-69
2022/04/13 01:49:44;;;;;;;14.32;7.38;;;;;;;14.79;61.45;101120.50;5081225;28;20027;-68
2022/04/13 01:52:11;;;;;;;17.13;7.18;;;;;;;14.75;61.35;101112.69;5075086;28;20039;-68
2022/04/13 01:54:37;;;;;;;13.80;6.93;;;;;;;14.76;61.49;101108.19;5066550;28;20383;-68
2022/04/13 01:57:03;;;;;;;15.10;7.25;;;;;;;14.77;61.57;101108.06;5070466;28;20090;-69
2022/04/13 01:59:29;;;;;;;14.95;7.32;;;;;;;14.75;61.61;101110.00;5067695;28;20027;-68
2022/04/13 02:01:57;;;;;;;14.20;7.28;;;;;;;14.88;61.54;101123.34;5069558;28;20020;-68
2022/04/13 02:04:26;;;;;;;12.73;7.88;;;;;;;14.85;61.77;101125.38;5068831;28;20037;-68
2022/04/13 02:06:54;;;;;;;12.10;7.07;;;;;;;14.89;61.27;101125.03;5081049;28;20044;-68
2022/04/13 02:09:22;;;;;;;11.95;7.75;;;;;;;14.70;62.09;101114.84;5057380;28;20479;-68
2022/04/13 02:11:48;;;;;;;13.23;7.22;;;;;;;14.88;61.78;101125.13;5083857;28;20123;-68
2022/04/13 02:14:14;;;;;;;13.48;7.35;;;;;;;14.74;61.82;101118.19;5072799;28;20028;-68
2022/04/13 02:16:39;;;;;;;10.27;7.28;;;;;;;14.72;62.06;101117.44;5069219;28;20027;-68
2022/04/13 02:19:07;;;;;;;15.40;8.32;;;;;;;14.63;62.58;101124.34;5084276;28;20119;-68
2022/04/13 02:21:33;;;;;;;12.93;7.38;;;;;;;14.69;62.34;101123.88;5067773;28;20024;-68
2022/04/13 02:23:59;;;;;;;14.60;7.38;;;;;;;14.65;62.70;101134.94;5069991;28;20016;-68
2022/04/13 02:26:25;;;;;;;14.02;7.88;;;;;;;14.70;62.41;101143.47;5084267;28;20047;-68
2022/04/13 02:28:50;;;;;;;14.90;7.80;;;;;;;14.72;62.28;101134.34;5073413;28;20032;-69
2022/04/13 02:31:18;;;;;;;12.68;7.60;;;;;;;14.68;62.44;101140.91;5080568;28;20056;-69
2022/04/13 02:33:43;;;;;;;14.88;7.25;;;;;;;14.71;62.33;101137.16;5077848;28;20682;-69
2022/04/13 02:36:09;;;;;;;14.50;8.32;;;;;;;14.69;62.55;101142.63;5076592;28;20143;-68
2022/04/13 02:38:35;;;;;;;11.65;6.90;;;;;;;14.66;62.67;101139.31;5069855;28;20134;-68
2022/04/13 02:41:00;;;;;;;13.77;7.38;;;;;;;14.59;62.89;101141.63;5082879;28;20020;-69
2022/04/13 02:43:29;;;;;;;15.48;7.60;;;;;;;14.62;62.47;101137.81;5082150;28;20041;-68
2022/04/13 02:45:57;;;;;;;14.07;7.70;;;;;;;14.47;63.04;101146.03;5067507;28;20040;-68
2022/04/13 02:48:23;;;;;;;15.90;7.82;;;;;;;14.44;63.21;101140.03;5068758;28;20035;-68
2022/04/13 02:50:49;;;;;;;11.25;7.07;;;;;;;14.41;63.33;101149.16;5079738;28;20024;-68
2022/04/13 02:53:15;;;;;;;12.32;7.53;;;;;;;14.27;63.68;101152.84;5083258;28;20036;-68
2022/04/13 02:55:41;;;;;;;13.35;7.75;;;;;;;14.17;63.97;101154.47;5081986;28;20029;-68
2022/04/13 02:58:07;;;;;;;14.80;8.38;;;;;;;14.08;64.50;101160.50;5072268;28;20016;-68
2022/04/13 03:00:35;;;;;;;11.90;7.95;;;;;;;14.03;64.47;101159.97;5079208;28;20050;-68
2022/04/13 03:03:01;;;;;;;12.20;7.70;;;;;;;14.15;64.16;101152.88;5086043;28;20020;-69
2022/04/13 03:05:26;;;;;;;11.55;7.35;;;;;;;14.05;64.50;101158.06;5072281;28;20119;-69
2022/04/13 03:07:55;;;;;;;14.65;7.90;;;;;;;14.00;64.78;101154.84;5053232;28;20057;-69
2022/04/13 03:10:21;;;;;;;17.15;7.45;;;;;;;14.12;63.98;101156.66;5071991;28;20033;-68
2022/04/13 03:12:47;;;;;;;15.18;7.85;;;;;;;13.98;64.24;101156.81;5077405;28;20020;-68
2022/04/13 03:15:14;;;;;;;11.98;7.90;;;;;;;13.89;64.79;101144.97;5078773;28;20020;-68
2022/04/13 03:17:39;;;;;;;12.02;7.90;;;;;;;13.85;64.85;101157.69;5069409;28;20400;-69
2022/04/13 03:20:05;;;;;;;17.42;7.80;;;;;;;13.75;65.10;101148.63;5071365;28;20025;-68
2022/04/13 03:22:31;;;;;;;12.20;8.32;;;;;;;13.78;65.35;101148.38;5067141;28;20044;-68
2022/04/13 03:25:02;;;;;;;16.15;7.90;;;;;;;13.56;65.78;101146.41;5068793;28;20024;-68
2022/04/13 03:27:28;;;;;;;13.90;7.95;;;;;;;13.70;65.18;101152.56;5067958;28;20024;-67
2022/04/13 03:29:56;;;;;;;14.13;8.40;;;;;;;13.63;65.54;101149.50;5075084;28;20128;-68
2022/04/13 03:32:22;;;;;;;16.27;7.57;;;;;;;13.59;65.41;101151.53;5075024;28;20093;-68
2022/04/13 03:34:47;;;;;;;14.15;8.63;;;;;;;13.66;65.47;101154.63;5072240;28;20029;-68
2022/04/13 03:37:15;;;;;;;11.52;8.35;;;;;;;13.54;65.28;101158.16;5086962;28;20062;-68
2022/04/13 03:39:40;;;;;;;10.52;7.75;;;;;;;13.41;65.72;101158.16;5076175;28;20030;-68
2022/04/13 03:42:07;;;;;;;12.40;7.63;;;;;;;13.47;65.56;101171.13;5072826;28;20463;-69
2022/04/13 03:44:32;;;;;;;11.55;8.10;;;;;;;13.39;65.73;101165.44;5078399;28;20024;-68
2022/04/13 03:46:58;;;;;;;12.23;7.80;;;;;;;13.39;65.96;101168.13;5081224;28;20031;-69
2022/04/13 03:49:24;;;;;;;13.50;7.80;;;;;;;13.18;66.84;101162.41;5077818;28;20040;-68
2022/04/13 03:51:49;;;;;;;14.77;8.68;;;;;;;13.15;66.71;101168.81;5072118;28;20052;-68
2022/04/13 03:54:15;;;;;;;15.40;8.05;;;;;;;13.26;66.54;101169.91;5071353;28;20032;-68
2022/04/13 03:56:41;;;;;;;18.60;8.80;;;;;;;13.16;66.59;101173.19;5071678;28;20039;-69
2022/04/13 03:59:09;;;;;;;15.70;8.48;;;;;;;13.15;66.66;101168.81;5071358;28;20036;-68
2022/04/13 04:01:35;;;;;;;14.73;8.93;;;;;;;13.11;67.03;101177.97;5072557;28;20131;-68
2022/04/13 04:04:01;;;;;;;17.33;8.68;;;;;;;13.13;67.18;101184.09;5072454;28;20020;-68
2022/04/13 04:06:26;;;;;;;13.15;8.10;;;;;;;13.05;66.56;101185.56;5073266;28;20125;-68
2022/04/13 04:08:51;;;;;;;10.90;7.82;;;;;;;13.08;66.62;101194.22;5057080;28;20033;-68
2022/04/13 04:11:17;;;;;;;13.10;8.05;;;;;;;12.97;66.81;101183.44;5072608;28;20055;-68
2022/04/13 04:13:42;;;;;;;17.00;8.65;;;;;;;13.00;67.46;101199.25;5062850;28;20031;-68
2022/04/13 04:16:08;;;;;;;16.92;9.32;;;;;;;12.97;67.55;101191.44;5078408;28;20029;-68
2022/04/13 04:18:34;;;;;;;15.15;9.55;;;;;;;12.94;67.84;101194.28;5079490;28;20028;-68
2022/04/13 04:21:00;;;;;;;12.60;8.80;;;;;;;12.99;67.81;101199.34;5081186;28;20119;-68
2022/04/13 04:23:26;;;;;;;16.45;10.02;;;;;;;12.86;68.32;101201.97;5080112;28;20502;-69
2022/04/13 04:25:52;;;;;;;15.60;10.10;;;;;;;12.84;68.28;101202.06;5071648;28;20021;-68
2022/04/13 04:28:18;;;;;;;13.15;9.70;;;;;;;12.86;68.15;101207.31;5087959;28;20025;-68
2022/04/13 04:30:45;;;;;;;18.02;10.55;;;;;;;12.82;68.67;101203.97;5072063;28;20048;-68
2022/04/13 04:33:15;;;;;;;14.20;9.85;;;;;;;12.78;68.94;101199.81;5071902;28;20370;-68
2022/04/13 04:35:44;;;;;;;14.63;10.40;;;;;;;12.71;69.65;101206.53;5071649;28;20020;-68
2022/04/13 04:38:10;;;;;;;15.43;10.25;;;;;;;12.85;68.88;101213.59;5077803;28;20035;-69
2022/04/13 04:40:36;;;;;;;13.07;9.90;;;;;;;12.88;68.84;101219.63;5072877;28;20036;-68
2022/04/13 04:43:01;;;;;;;16.50;10.95;;;;;;;12.96;69.16;101227.09;5070577;28;20055;-68
2022/04/13 04:45:27;;;;;;;12.93;9.73;;;;;;;12.94;69.51;101224.53;5070498;28;20031;-68
2022/04/13 04:47:57;;;;;;;20.40;10.55;;;;;;;12.86;69.93;101218.84;5086819;28;20040;-68
2022/04/13 04:50:23;;;;;;;20.30;10.18;;;;;;;12.94;69.67;101231.66;5058063;28;20123;-68
2022/04/13 04:52:51;;;;;;;13.65;10.18;;;;;;;12.77;70.33;101242.66;5075519;28;20027;-68
2022/04/13 04:55:18;;;;;;;14.43;11.30;;;;;;;12.84;70.47;101238.59;5069184;28;20119;-68
2022/04/13 04:57:47;;;;;;;20.90;11.60;;;;;;;12.91;70.50;101242.56;5072534;28;20052;-68
2022/04/13 05:00:20;;;;;;;16.63;13.52;;;;;;;12.90;71.08;101249.72;5071063;28;20485;-68
2022/04/13 05:02:47;;;;;;;20.98;13.68;;;;;;;12.94;70.93;101250.34;5075338;28;20062;-68
2022/04/13 05:05:14;;;;;;;18.83;12.38;;;;;;;12.90;71.18;101246.19;5083255;28;20042;-68
2022/04/13 05:07:42;;;;;;;18.55;13.23;;;;;;;12.92;71.04;101249.63;5082173;28;20495;-68
2022/04/13 05:10:08;;;;;;;21.52;12.70;;;;;;;12.86;71.05;101242.88;5077939;28;20025;-68
2022/04/13 05:12:43;;;;;;;20.15;14.00;;;;;;;13.03;70.49;101257.78;5075966;28;20051;-69
2022/04/13 05:15:09;;;;;;;20.23;12.73;;;;;;;12.99;70.98;101256.25;5072188;28;20034;-68
2022/04/13 05:17:37;;;;;;;21.80;13.38;;;;;;;13.03;71.19;101262.25;5071445;28;20036;-68
2022/04/13 05:20:06;;;;;;;20.83;14.68;;;;;;;13.04;71.36;101269.31;5076440;28;20128;-68
2022/04/13 05:22:32;;;;;;;19.90;14.35;;;;;;;13.08;71.28;101270.81;5076335;28;20522;-68
2022/04/13 05:25:11;;;;;;;20.38;14.82;;;;;;;13.20;70.85;101275.31;5076032;28;20112;-68
2022/04/13 05:27:37;;;;;;;23.85;15.45;;;;;;;13.21;70.67;101271.72;5068736;28;20025;-69
2022/04/13 05:30:04;;;;;;;23.88;16.02;;;;;;;13.29;70.60;101281.91;5070577;28;20035;-68
2022/04/13 05:32:30;;;;;;;20.35;15.73;;;;;;;13.31;70.58;101280.84;5074425;28;20029;-68
2022/04/13 05:35:00;;;;;;;27.20;17.20;;;;;;;13.35;70.63;101285.03;5075790;28;20090;-68
2022/04/13 05:37:27;;;;;;;24.27;17.38;;;;;;;13.35;70.77;101281.47;5077830;28;20471;-68
2022/04/13 05:39:56;;;;;;;24.38;17.50;;;;;;;13.44;70.94;101288.00;5072268;28;20028;-68
2022/04/13 05:42:23;;;;;;;24.90;17.08;;;;;;;13.42;70.75;101287.28;5069565;28;20111;-69
2022/04/13 05:44:49;;;;;;;23.48;18.67;;;;;;;13.42;70.83;101296.16;5085802;28;20040;-68
2022/04/13 05:47:14;;;;;;;28.27;18.80;;;;;;;13.45;70.80;101298.63;5070395;28;20043;-68
2022/04/13 05:49:41;;;;;;;24.02;18.95;;;;;;;13.47;70.70;101301.16;5068643;28;20067;-68
2022/04/13 05:52:06;;;;;;;24.75;17.95;;;;;;;13.48;70.96;101303.75;5075042;28;20019;-68
2022/04/13 05:54:32;;;;;;;28.63;18.55;;;;;;;13.50;70.92;101298.28;5068593;28;20107;-68
2022/04/13 05:56:58;;;;;;;27.75;18.80;;;;;;;13.64;70.49;101307.06;5068790;28;20502;-68
2022/04/13 05:59:23;;;;;;;22.55;17.55;;;;;;;13.72;70.94;101309.22;5087923;28;20043;-68
2022/04/13 06:01:51;;;;;;;31.23;19.38;;;;;;;13.81;70.58;101313.09;5075415;28;20102;-68
2022/04/13 06:04:17;;;;;;;23.92;18.77;;;;;;;13.90;70.54;101309.78;5090461;28;20345;-68
2022/04/13 06:06:45;;;;;;;27.67;19.55;;;;;;;13.95;70.47;101321.00;5050419;28;20040;-68
2022/04/13 06:09:11;;;;;;;28.20;18.63;;;;;;;13.98;70.00;101314.59;5071113;28;20449;-68
2022/04/13 06:11:36;;;;;;;26.38;18.98;;;;;;;14.01;70.13;101320.56;5052864;28;20050;-68
2022/04/13 06:14:02;;;;;;;25.70;19.77;;;;;;;14.04;69.92;101328.38;5069910;28;20097;-68
2022/04/13 06:16:28;;;;;;;27.08;19.77;;;;;;;14.08;69.75;101326.34;5070323;28;20178;-68
2022/04/13 06:18:53;;;;;;;29.05;18.80;;;;;;;14.11;69.95;101326.13;5072240;28;20400;-68
2022/04/13 06:21:19;;;;;;;22.60;18.23;;;;;;;14.18;70.55;101331.94;5070064;28;20040;-69
2022/04/13 06:23:47;;;;;;;27.60;18.67;;;;;;;14.18;69.97;101335.44;5072239;28;20043;-69
2022/04/13 06:26:15;;;;;;;28.85;18.40;;;;;;;14.26;69.56;101345.59;5071023;28;20059;-68
2022/04/13 06:28:41;;;;;;;28.98;18.38;;;;;;;14.22;69.69;101338.75;5071029;28;20078;-69
2022/04/13 06:31:06;;;;;;;26.77;20.00;;;;;;;14.22;70.08;101333.41;5069113;28;20032;-69
2022/04/13 06:33:32;;;;;;;25.80;18.67;;;;;;;14.18;70.24;101342.63;5067934;28;20032;-69
2022/04/13 06:35:58;;;;;;;28.38;20.23;;;;;;;14.21;70.74;101342.41;5070342;28;20111;-69
2022/04/13 06:38:24;;;;;;;31.20;18.40;;;;;;;14.18;70.29;101337.28;5069697;28;20036;-69
2022/04/13 06:40:51;;;;;;;29.17;18.75;;;;;;;14.22;70.38;101346.78;5077981;28;20043;-69
2022/04/13 06:43:17;;;;;;;28.73;19.05;;;;;;;14.14;70.90;101344.63;5079113;28;20368;-69
2022/04/13 06:45:45;;;;;;;28.52;19.35;;;;;;;14.23;70.52;101348.47;5052455;28;20032;-69
2022/04/13 06:48:10;;;;;;;28.40;18.38;;;;;;;14.28;71.32;101362.41;5085661;28;20099;-69
2022/04/13 06:50:36;;;;;;;29.95;18.80;;;;;;;14.33;69.94;101360.28;5071750;28;20502;-68
2022/04/13 06:53:04;;;;;;;30.63;19.33;;;;;;;14.33;69.92;101376.31;5072813;28;20383;-69
2022/04/13 06:55:29;;;;;;;35.15;19.88;;;;;;;14.37;70.07;101375.13;5072839;28;20024;-68
2022/04/13 06:57:55;;;;;;;29.83;19.85;;;;;;;14.36;69.88;101377.94;5070716;28;20020;-69
2022/04/13 07:00:22;;;;;;;33.58;20.63;;;;;;;14.45;69.93;101387.97;5069195;28;20407;-68
2022/04/13 07:02:48;;;;;;;28.02;20.63;;;;;;;14.52;69.87;101392.81;5071612;28;20036;-69
2022/04/13 07:05:13;;;;;;;28.88;19.48;;;;;;;14.47;69.69;101380.69;5074471;28;20036;-69
2022/04/13 07:07:39;;;;;;;29.77;19.75;;;;;;;14.54;69.35;101395.38;5072377;28;20048;-69
2022/04/13 07:10:07;;;;;;;26.70;19.35;;;;;;;14.57;69.68;101399.69;5089221;28;20471;-69
2022/04/13 07:12:34;;;;;;;29.48;19.65;;;;;;;14.59;70.28;101397.72;5054909;28;20028;-69
2022/04/13 07:15:00;;;;;;;24.50;19.08;;;;;;;14.59;70.17;101411.09;5072918;28;20025;-69
2022/04/13 07:17:26;;;;;;;34.42;19.75;;;;;;;14.64;70.17;101412.50;5072990;28;20051;-68
2022/04/13 07:19:51;;;;;;;30.08;20.38;;;;;;;14.67;70.79;101412.28;5073958;28;20399;-68
2022/04/13 07:22:20;;;;;;;28.85;19.50;;;;;;;14.68;70.11;101422.03;5072557;28;20377;-68
2022/04/13 07:24:45;;;;;;;32.33;19.88;;;;;;;14.68;70.14;101419.38;5072597;28;20035;-68
2022/04/13 07:27:10;;;;;;;31.45;19.70;;;;;;;14.77;69.95;101420.53;5072684;28;20024;-69
2022/04/13 07:29:36;;;;;;;29.45;20.05;;;;;;;14.87;70.28;101420.72;5080079;28;20031;-69
2022/04/13 07:32:02;;;;;;;27.52;19.58;;;;;;;14.96;69.86;101428.94;5048121;28;20122;-68
2022/04/13 07:34:36;;;;;;;25.23;19.38;;;;;;;14.94;69.95;101436.25;5083811;28;20432;-68
2022/04/13 07:37:04;;;;;;;33.28;20.15;;;;;;;14.99;70.29;101430.53;5072257;28;20024;-69
2022/04/13 07:39:30;;;;;;;29.73;20.60;;;;;;;14.95;70.63;101432.59;5073814;28;20032;-68
2022/04/13 07:41:55;;;;;;;25.77;19.58;;;;;;;14.87;70.62;101426.91;5072471;28;20028;-68
2022/04/13 07:44:21;;;;;;;25.23;18.27;;;;;;;14.98;70.64;101424.34;5072181;28;20087;-68
2022/04/13 07:46:46;;;;;;;27.08;19.92;;;;;;;14.99;70.63;101430.53;5039124;28;20036;-68
2022/04/13 07:49:14;;;;;;;27.48;18.98;;;;;;;14.96;70.20;101439.66;5072450;28;20058;-69
2022/04/13 07:51:40;;;;;;;32.42;20.15;;;;;;;14.99;70.56;101435.91;5054115;28;20035;-69
2022/04/13 07:54:06;;;;;;;29.00;19.10;;;;;;;15.10;71.01;101432.44;5068002;28;20066;-69
2022/04/13 07:56:32;;;;;;;28.02;18.77;;;;;;;15.20;70.89;101430.78;5072136;28;20031;-69
2022/04/13 07:58:58;;;;;;;26.20;19.58;;;;;;;15.36;70.30;101442.13;5089773;28;20352;-69
2022/04/13 08:01:23;;;;;;;29.70;20.10;;;;;;;15.45;69.64;101443.25;5093007;28;20031;-68
2022/04/13 08:03:51;;;;;;;28.88;20.85;;;;;;;15.65;68.81;101448.00;5090893;28;20480;-69
2022/04/13 08:06:19;;;;;;;25.40;18.77;;;;;;;15.93;68.17;101456.66;5069259;28;20056;-69
2022/04/13 08:08:44;;;;;;;26.92;19.08;;;;;;;16.03;67.37;101455.00;5055464;28;20434;-70
2022/04/13 08:11:12;;;;;;;26.50;19.02;;;;;;;16.15;67.22;101463.06;5058631;28;20039;-69
2022/04/13 08:13:40;;;;;;;29.20;19.02;;;;;;;16.26;67.27;101457.72;5086809;28;20024;-69
2022/04/13 08:16:06;;;;;;;27.65;18.30;;;;;;;16.25;66.84;101442.63;5054833;28;20037;-69
2022/04/13 08:18:31;;;;;;;26.75;16.80;;;;;;;16.58;66.42;101458.75;5071878;28;20029;-70
2022/04/13 08:20:56;;;;;;;26.20;16.33;;;;;;;16.71;65.45;101463.19;5092628;28;20559;-70
2022/04/13 08:23:22;;;;;;;24.30;16.73;;;;;;;16.74;65.09;101468.31;5093286;28;20536;-70
2022/04/13 08:25:48;;;;;;;24.58;14.65;;;;;;;16.65;64.63;101464.53;5075586;28;20480;-70
2022/04/13 08:28:13;;;;;;;22.75;13.30;;;;;;;16.66;64.94;101470.75;5067494;28;20539;-70
2022/04/13 08:30:41;;;;;;;19.70;13.10;;;;;;;16.68;65.34;101479.56;5069913;28;20028;-69
2022/04/13 08:33:09;;;;;;;21.25;12.55;;;;;;;16.55;64.49;101459.00;5092204;28;20024;-70
2022/04/13 08:35:35;;;;;;;16.20;11.63;;;;;;;16.67;64.79;101483.19;5086098;28;20032;-70
2022/04/13 08:38:01;;;;;;;19.05;11.48;;;;;;;16.59;64.70;101478.44;5068230;28;20032;-69
2022/04/13 08:40:26;;;;;;;15.70;10.95;;;;;;;16.55;64.04;101476.94;5073133;28;20424;-70
2022/04/13 08:43:09;;;;;;;19.40;12.80;;;;;;;16.62;64.53;101480.88;5076369;28;20045;-69
2022/04/13 08:45:39;;;;;;;22.10;12.40;;;;;;;16.60;64.86;101485.50;5069656;28;20120;-69
2022/04/13 08:48:10;;;;;;;18.52;10.43;;;;;;;16.70;64.34;101491.84;5082468;28;20391;-69
2022/04/13 08:50:37;;;;;;;15.77;11.48;;;;;;;16.70;63.77;101494.53;5079417;28;20035;-69
2022/04/13 08:53:08;;;;;;;19.10;12.05;;;;;;;16.75;64.54;101486.13;5079669;28;20103;-69
2022/04/13 08:55:35;;;;;;;17.42;11.95;;;;;;;16.82;64.63;101481.16;5075601;28;20466;-69
2022/04/13 08:58:13;;;;;;;18.67;12.68;;;;;;;16.98;64.36;101490.56;5072027;28;20592;-70
2022/04/13 09:00:46;;;;;;;22.90;13.60;;;;;;;17.05;63.22;101498.13;5071941;28;20035;-69
2022/04/13 09:03:30;;;;;;;21.05;14.07;;;;;;;17.12;63.98;101496.66;5070794;28;20028;-69
2022/04/13 09:05:58;;;;;;;24.17;14.55;;;;;;;17.20;63.73;101500.44;5070429;28;20086;-70
2022/04/13 09:08:47;;;;;;;19.30;14.10;;;;;;;17.21;63.33;101502.16;5067261;28;20086;-70
2022/04/13 09:11:17;;;;;;;19.67;14.45;;;;;;;17.11;63.15;101497.66;5070011;28;21551;-69
2022/04/13 09:13:46;;;;;;;20.77;13.82;;;;;;;17.19;63.38;101508.63;5068207;28;20040;-69
2022/04/13 09:16:13;;;;;;;24.45;14.02;;;;;;;17.17;63.67;101507.91;5070544;28;20032;-69
2022/04/13 09:18:40;;;;;;;21.70;15.52;;;;;;;17.19;63.71;101514.88;5068475;28;20403;-70
2022/04/13 09:21:06;;;;;;;22.83;15.48;;;;;;;17.02;63.18;101516.22;5069715;28;20043;-69
2022/04/13 09:23:34;;;;;;;21.02;14.85;;;;;;;16.93;64.24;101519.63;5068741;28;21324;-69
2022/04/13 09:26:04;;;;;;;21.63;14.73;;;;;;;16.89;64.13;101520.88;5057921;28;20032;-70
2022/04/13 09:28:29;;;;;;;25.02;15.98;;;;;;;16.88;64.67;101520.97;5068223;28;20173;-70
2022/04/13 09:30:55;;;;;;;22.90;14.32;;;;;;;16.85;64.96;101516.69;5081963;28;20027;-69
2022/04/13 09:33:21;;;;;;;24.35;15.65;;;;;;;16.88;64.00;101529.88;5070791;28;20034;-69
2022/04/13 09:35:47;;;;;;;27.33;14.52;;;;;;;16.84;64.68;101533.78;5071862;28;20498;-68
2022/04/13 09:38:12;;;;;;;17.65;14.85;;;;;;;16.79;64.90;101538.66;5067167;28;20021;-69
2022/04/13 09:40:40;;;;;;;24.10;16.05;;;;;;;16.72;64.98;101537.41;5075172;28;20456;-69
2022/04/13 09:43:14;;;;;;;25.48;15.48;;;;;;;16.67;65.29;101528.84;5084008;28;20085;-69
2022/04/13 09:45:47;;;;;;;22.58;17.48;;;;;;;16.57;65.29;101545.69;5079691;28;20033;-69
2022/04/13 09:48:15;;;;;;;22.10;16.55;;;;;;;16.49;65.89;101545.41;5070416;28;20024;-70
2022/04/13 09:50:44;;;;;;;27.48;18.58;;;;;;;16.44;66.07;101542.25;5075251;28;20063;-69
2022/04/13 09:53:11;;;;;;;25.35;18.23;;;;;;;16.47;65.61;101541.13;5070437;28;20074;-69
2022/04/13 09:55:48;;;;;;;22.90;18.50;;;;;;;16.52;65.95;101542.50;5075872;28;20032;-69
2022/04/13 09:58:17;;;;;;;25.02;19.42;;;;;;;16.50;65.59;101544.47;5077055;28;20586;-69
2022/04/13 10:00:43;;;;;;;23.98;18.42;;;;;;;16.50;66.04;101535.53;5077813;28;20056;-69
2022/04/13 10:03:25;;;;;;;24.08;18.10;;;;;;;16.55;66.44;101541.41;5068897;28;20050;-69
2022/04/13 10:05:52;;;;;;;23.10;17.75;;;;;;;16.50;66.79;101547.16;5070419;28;20028;-69
2022/04/13 10:08:24;;;;;;;24.10;17.67;;;;;;;16.47;66.78;101543.81;5075901;28;20073;-69
2022/04/13 10:10:52;;;;;;;25.30;18.02;;;;;;;16.44;66.61;101546.75;5073637;28;20036;-69
2022/04/13 10:13:42;;;;;;;25.27;19.38;;;;;;;16.44;66.49;101549.44;5057276;28;20017;-69
2022/04/13 10:16:12;;;;;;;25.00;18.02;;;;;;;16.42;67.38;101549.56;5072976;28;20046;-70
2022/04/13 10:18:55;;;;;;;24.30;18.85;;;;;;;16.37;66.73;101557.09;5070632;28;20425;-69
2022/04/13 10:21:37;;;;;;;23.25;17.88;;;;;;;16.34;67.16;101549.28;5070115;28;20040;-69
2022/04/13 10:24:07;;;;;;;23.92;18.63;;;;;;;16.26;67.36;101557.06;5082906;28;20059;-69
2022/04/13 10:26:33;;;;;;;25.58;18.77;;;;;;;16.29;67.85;101548.75;5078764;28;20031;-69
2022/04/13 10:28:58;;;;;;;26.52;19.45;;;;;;;16.21;67.44;101551.19;5069530;28;20028;-69
2022/04/13 10:31:26;;;;;;;27.63;19.92;;;;;;;16.20;67.40;101553.00;5054471;28;20127;-69
2022/04/13 10:33:56;;;;;;;25.13;18.60;;;;;;;16.18;68.21;101551.41;5068467;28;20471;-69
2022/04/13 10:36:22;;;;;;;21.48;17.73;;;;;;;16.20;68.30;101554.84;5067958;28;20035;-69
2022/04/13 10:38:47;;;;;;;26.10;18.13;;;;;;;16.16;68.02;101562.28;5074614;28;20391;-69
2022/04/13 10:41:18;;;;;;;22.15;17.67;;;;;;;16.10;68.95;101568.09;5088745;28;20028;-69
2022/04/13 10:43:52;;;;;;;23.50;18.45;;;;;;;16.19;69.14;101570.09;5081715;28;20017;-69
2022/04/13 10:46:21;;;;;;;24.63;20.08;;;;;;;16.18;69.36;101563.03;5089698;28;20436;-69
2022/04/13 10:49:00;;;;;;;28.80;21.50;;;;;;;16.18;68.97;101557.66;5072219;28;20040;-69
2022/04/13 10:51:31;;;;;;;26.42;21.10;;;;;;;16.28;68.69;101580.13;5072656;28;20119;-69
2022/04/13 10:54:02;;;;;;;24.30;21.67;;;;;;;16.24;69.58;101570.59;5071247;28;20475;-70
2022/04/13 10:56:31;;;;;;;30.20;21.55;;;;;;;16.20;70.20;101581.69;5073854;28;20032;-69
2022/04/13 10:59:08;;;;;;;27.98;21.35;;;;;;;16.21;70.16;101581.56;5081058;28;20035;-69
2022/04/13 11:01:46;;;;;;;31.80;23.90;;;;;;;16.20;70.15;101593.25;5068973;28;20028;-69
2022/04/13 11:04:12;;;;;;;31.05;23.67;;;;;;;16.08;70.52;101596.88;5079928;28;20429;-69
2022/04/13 11:06:40;;;;;;;32.65;25.17;;;;;;;15.93;70.47;101576.53;5071591;28;20139;-69
2022/04/13 11:09:25;;;;;;;28.75;23.90;;;;;;;16.04;70.73;101593.56;5088969;28;20421;-69
2022/04/13 11:11:52;;;;;;;30.15;25.42;;;;;;;16.03;70.96;101601.72;5072963;28;20032;-69
2022/04/13 11:14:21;;;;;;;32.85;25.90;;;;;;;15.87;70.67;101593.94;5082199;28;20035;-68